• Join FlightAware (Why Join?)
  • Login
  • US Flag 
09:01AM EDT


 

Airport Tracker/Info


-or-


 

Live Flight TrackerFlight Track Log ✈ WEW1540 ✈ 07-May-2013 ✈ CYQR - CYYN

Flight Track Log - Related Links

Times and Time Zones

All times are in EDT time to prevent confusion due to time zone crossing. See the WEW1540 flight status page for this flight to view local times or setup timezone preferences in your user account.

Time Position Orientation Groundspeed Altitude Reporting Facility
EDT Latitude Longitude Course Direction KTS MPH feet Rate Location/Type
08:07AM 50.4000 -104.7000 327° Northwest 60 69 1,900  Level Winnipeg Center
08:08AM 50.4167 -104.7167 327° Northwest 110 127 3,000 1,020 Climbing Winnipeg Center
08:09AM 50.4167 -104.7833 270° West 110 127 4,000 840 Climbing Winnipeg Center
08:10AM 50.4167 -104.8333 270° West 110 127 4,700 780 Climbing Winnipeg Center
08:11AM 50.4167 -104.8833 270° West 120 138 5,600 600 Climbing Winnipeg Center
08:12AM 50.4000 -104.9333 242° Southwest 120 138 6,000 180 Climbing Winnipeg Center
08:13AM 50.4000 -104.9833 270° West 150 173 6,000  Level Winnipeg Center
08:14AM 50.4000 -105.0667 270° West 150 173 6,000  Level Winnipeg Center
08:15AM 50.4000 -105.1333 270° West 160 184 6,000  Level Winnipeg Center
08:16AM 50.4000 -105.2000 270° West 160 184 6,000  Level Winnipeg Center
08:17AM 50.4000 -105.2667 270° West 160 184 6,000  Level Winnipeg Center
08:18AM 50.4000 -105.3500 270° West 160 184 6,000  Level Winnipeg Center
08:19AM 50.3833 -105.4000 242° Southwest 160 184 6,000  Level Winnipeg Center
08:20AM 50.4000 -105.4833 287° West 160 184 6,000  Level Winnipeg Center
08:21AM 50.4000 -105.5333 270° West 160 184 6,000  Level Winnipeg Center
08:22AM 50.3833 -105.6167 253° West 160 184 6,000  Level Winnipeg Center
08:23AM 50.3833 -105.7000 270° West 160 184 6,000  Level Winnipeg Center
08:24AM 50.3833 -105.7500 270° West 160 184 6,000  Level Winnipeg Center
08:25AM 50.3667 -105.8167 249° West 160 184 6,000  Level Winnipeg Center
08:26AM 50.3667 -105.8667 270° West 160 184 6,000  Level Winnipeg Center
08:27AM 50.3667 -105.9500 270° West 150 173 6,100  Climbing Winnipeg Center
08:28AM 50.3667 -106.0000 270° West 150 173 6,000  Descending Winnipeg Center
08:29AM 50.3500 -106.0833 253° West 150 173 6,100  Climbing Winnipeg Center
08:30AM 50.3667 -106.1667 287° West 160 184 6,000 -60 Descending Winnipeg Center
08:31AM 50.3667 -106.2167 270° West 150 173 6,000  Level Winnipeg Center
08:32AM 50.3500 -106.3000 253° West 150 173 6,100  Climbing Winnipeg Center
08:33AM 50.3500 -106.3500 270° West 150 173 6,100  Level Winnipeg Center
08:34AM 50.3500 -106.4167 270° West 150 173 6,100  Level Winnipeg Center
08:35AM 50.3333 -106.4667 242° Southwest 150 173 6,100  Level Winnipeg Center
08:36AM 50.3333 -106.5500 270° West 150 173 6,100 -60 Level Winnipeg Center
08:37AM 50.3333 -106.6000 270° West 150 173 6,000 -60 Descending Winnipeg Center
08:38AM 50.3167 -106.6833 253° West 150 173 6,000  Level Winnipeg Center
08:39AM 50.3333 -106.7667 287° West 150 173 6,000  Level Winnipeg Center
08:40AM 50.3333 -106.8167 270° West 150 173 6,100  Climbing Winnipeg Center
08:41AM 50.3167 -106.9000 253° West 150 173 6,000 -60 Descending Winnipeg Center
08:43AM 50.3128 -107.0049 267° West  Level FlightAware Approximate
08:44AM 50.3167 -107.0833 267° West 150 173 6,000  Level Winnipeg Center
08:46AM 50.3103 -107.1803 264° West  Level FlightAware Approximate
08:47AM 50.3000 -107.2500 264° West 160 184 5,700  Level Winnipeg Center
08:48AM 50.3000 -107.3333 270° West 160 184 5,200 -480 Descending Winnipeg Center
08:49AM 50.3167 -107.3833 298° West 160 184 4,800 -360 Descending Winnipeg Center
08:50AM 50.3000 -107.4667 253° West 150 173 4,500 -300 Descending Winnipeg Center
08:52AM 50.2921 -107.5699 263° West  Level FlightAware Approximate
08:59AM 50.2833 -107.6833 265° West  Level FlightAware Approximate
09:00AM 50.2919 -107.6906 265° West  Level Estimated
09:01AM 50.2919 -107.6906 265° West  Level Estimated
09:02AM 50.2919 -107.6906 265° West  Level Estimated
09:03AM 50.2919 -107.6906 265° West  Level Estimated
09:04AM 50.2919 -107.6906 265° West  Level Estimated